sensor_id;sensor_type;location;lat;lon;timestamp;temperature;humidity
24011;DHT22;12217;50.792;4.372;2023-02-21T00:00:25;8.30;99.90
24011;DHT22;12217;50.792;4.372;2023-02-21T00:03:10;8.30;99.90
24011;DHT22;12217;50.792;4.372;2023-02-21T00:05:54;8.30;99.90
24011;DHT22;12217;50.792;4.372;2023-02-21T00:08:38;8.40;99.90
24011;DHT22;12217;50.792;4.372;2023-02-21T00:11:22;8.20;99.90
24011;DHT22;12217;50.792;4.372;2023-02-21T00:14:05;8.20;99.90
24011;DHT22;12217;50.792;4.372;2023-02-21T00:16:49;8.30;99.90
24011;DHT22;12217;50.792;4.372;2023-02-21T00:19:33;8.50;99.90
24011;DHT22;12217;50.792;4.372;2023-02-21T00:22:18;8.50;99.90
24011;DHT22;12217;50.792;4.372;2023-02-21T00:25:02;8.40;99.90
24011;DHT22;12217;50.792;4.372;2023-02-21T00:27:45;8.00;99.90
24011;DHT22;12217;50.792;4.372;2023-02-21T00:30:30;8.10;99.90
24011;DHT22;12217;50.792;4.372;2023-02-21T00:33:14;7.90;99.90
24011;DHT22;12217;50.792;4.372;2023-02-21T00:35:58;8.00;99.90
24011;DHT22;12217;50.792;4.372;2023-02-21T00:38:42;7.90;99.90
24011;DHT22;12217;50.792;4.372;2023-02-21T00:41:26;8.00;99.90
24011;DHT22;12217;50.792;4.372;2023-02-21T00:44:10;8.10;99.90
24011;DHT22;12217;50.792;4.372;2023-02-21T00:46:54;7.90;99.90
24011;DHT22;12217;50.792;4.372;2023-02-21T00:49:38;7.80;99.90
24011;DHT22;12217;50.792;4.372;2023-02-21T00:52:22;7.70;99.90
24011;DHT22;12217;50.792;4.372;2023-02-21T00:55:06;7.70;99.90
24011;DHT22;12217;50.792;4.372;2023-02-21T00:57:50;7.70;99.90
24011;DHT22;12217;50.792;4.372;2023-02-21T01:00:34;7.90;99.90
24011;DHT22;12217;50.792;4.372;2023-02-21T01:03:18;8.00;99.90
24011;DHT22;12217;50.792;4.372;2023-02-21T01:06:04;8.00;99.90
24011;DHT22;12217;50.792;4.372;2023-02-21T01:08:51;7.70;99.90
24011;DHT22;12217;50.792;4.372;2023-02-21T01:11:35;7.60;99.90
24011;DHT22;12217;50.792;4.372;2023-02-21T01:14:19;7.60;99.90
24011;DHT22;12217;50.792;4.372;2023-02-21T01:17:03;7.80;99.90
24011;DHT22;12217;50.792;4.372;2023-02-21T01:19:47;7.70;99.90
24011;DHT22;12217;50.792;4.372;2023-02-21T01:22:31;7.70;99.90
24011;DHT22;12217;50.792;4.372;2023-02-21T01:25:15;7.80;99.90
24011;DHT22;12217;50.792;4.372;2023-02-21T01:27:59;7.90;99.90
24011;DHT22;12217;50.792;4.372;2023-02-21T01:30:43;7.80;99.90
24011;DHT22;12217;50.792;4.372;2023-02-21T01:33:27;7.90;99.90
24011;DHT22;12217;50.792;4.372;2023-02-21T01:36:11;8.00;99.90
24011;DHT22;12217;50.792;4.372;2023-02-21T01:38:55;8.10;99.90
24011;DHT22;12217;50.792;4.372;2023-02-21T01:41:39;8.40;99.90
24011;DHT22;12217;50.792;4.372;2023-02-21T01:47:14;8.60;99.90
24011;DHT22;12217;50.792;4.372;2023-02-21T01:50:00;8.20;99.90
24011;DHT22;12217;50.792;4.372;2023-02-21T01:52:45;8.10;99.90
24011;DHT22;12217;50.792;4.372;2023-02-21T01:55:31;8.00;99.90
24011;DHT22;12217;50.792;4.372;2023-02-21T01:58:17;7.80;99.90
24011;DHT22;12217;50.792;4.372;2023-02-21T02:01:03;7.60;99.90
24011;DHT22;12217;50.792;4.372;2023-02-21T02:03:47;7.60;99.90
24011;DHT22;12217;50.792;4.372;2023-02-21T02:06:31;7.90;99.90
24011;DHT22;12217;50.792;4.372;2023-02-21T02:09:19;8.00;99.90
24011;DHT22;12217;50.792;4.372;2023-02-21T02:15:05;7.70;99.90
24011;DHT22;12217;50.792;4.372;2023-02-21T02:31:44;7.70;99.90
24011;DHT22;12217;50.792;4.372;2023-02-21T02:43:21;7.90;99.90
24011;DHT22;12217;50.792;4.372;2023-02-21T02:45:55;7.90;99.90
24011;DHT22;12217;50.792;4.372;2023-02-21T02:48:37;8.00;99.90
24011;DHT22;12217;50.792;4.372;2023-02-21T02:51:11;8.20;99.90
24011;DHT22;12217;50.792;4.372;2023-02-21T02:53:37;8.30;99.90
24011;DHT22;12217;50.792;4.372;2023-02-21T02:56:05;8.20;99.90
24011;DHT22;12217;50.792;4.372;2023-02-21T02:58:41;8.10;99.90
24011;DHT22;12217;50.792;4.372;2023-02-21T03:01:20;8.00;99.90
24011;DHT22;12217;50.792;4.372;2023-02-21T03:04:15;7.90;99.90
24011;DHT22;12217;50.792;4.372;2023-02-21T03:09:32;7.90;99.90
24011;DHT22;12217;50.792;4.372;2023-02-21T03:12:12;8.10;99.90
24011;DHT22;12217;50.792;4.372;2023-02-21T03:14:49;8.10;99.90
24011;DHT22;12217;50.792;4.372;2023-02-21T03:17:17;8.10;99.90
24011;DHT22;12217;50.792;4.372;2023-02-21T03:19:46;8.10;99.90
24011;DHT22;12217;50.792;4.372;2023-02-21T03:22:16;8.20;99.90
24011;DHT22;12217;50.792;4.372;2023-02-21T03:24:44;8.20;99.90
24011;DHT22;12217;50.792;4.372;2023-02-21T03:27:12;8.40;99.90
24011;DHT22;12217;50.792;4.372;2023-02-21T03:29:38;8.40;99.90
24011;DHT22;12217;50.792;4.372;2023-02-21T03:32:16;8.50;99.90
24011;DHT22;12217;50.792;4.372;2023-02-21T03:34:43;8.40;99.90
24011;DHT22;12217;50.792;4.372;2023-02-21T03:37:21;8.60;99.90
24011;DHT22;12217;50.792;4.372;2023-02-21T03:39:53;8.60;99.90
24011;DHT22;12217;50.792;4.372;2023-02-21T03:42:19;8.40;99.90
24011;DHT22;12217;50.792;4.372;2023-02-21T03:44:44;8.10;99.90
24011;DHT22;12217;50.792;4.372;2023-02-21T03:47:10;8.00;99.90
24011;DHT22;12217;50.792;4.372;2023-02-21T03:49:35;8.00;99.90
24011;DHT22;12217;50.792;4.372;2023-02-21T03:52:01;7.90;99.90
24011;DHT22;12217;50.792;4.372;2023-02-21T03:54:26;7.80;99.90
24011;DHT22;12217;50.792;4.372;2023-02-21T03:56:52;7.80;99.90
24011;DHT22;12217;50.792;4.372;2023-02-21T03:59:17;7.70;99.90
24011;DHT22;12217;50.792;4.372;2023-02-21T04:01:43;7.60;99.90
24011;DHT22;12217;50.792;4.372;2023-02-21T04:04:09;7.70;99.90
24011;DHT22;12217;50.792;4.372;2023-02-21T04:06:34;7.80;99.90
24011;DHT22;12217;50.792;4.372;2023-02-21T04:09:00;7.70;99.90
24011;DHT22;12217;50.792;4.372;2023-02-21T04:11:25;7.60;99.90
24011;DHT22;12217;50.792;4.372;2023-02-21T04:13:51;7.50;99.90
24011;DHT22;12217;50.792;4.372;2023-02-21T04:16:17;7.70;99.90
24011;DHT22;12217;50.792;4.372;2023-02-21T04:18:42;7.70;99.90
24011;DHT22;12217;50.792;4.372;2023-02-21T04:21:08;7.70;99.90
24011;DHT22;12217;50.792;4.372;2023-02-21T04:23:33;7.80;99.90
24011;DHT22;12217;50.792;4.372;2023-02-21T04:25:59;7.70;99.90
24011;DHT22;12217;50.792;4.372;2023-02-21T04:28:25;7.60;99.90
24011;DHT22;12217;50.792;4.372;2023-02-21T04:30:50;7.60;99.90
24011;DHT22;12217;50.792;4.372;2023-02-21T04:33:16;7.60;99.90
24011;DHT22;12217;50.792;4.372;2023-02-21T04:35:42;7.60;99.90
24011;DHT22;12217;50.792;4.372;2023-02-21T04:38:08;7.50;99.90
24011;DHT22;12217;50.792;4.372;2023-02-21T04:40:33;7.60;99.90
24011;DHT22;12217;50.792;4.372;2023-02-21T04:42:59;7.70;99.90
24011;DHT22;12217;50.792;4.372;2023-02-21T04:45:24;7.70;99.90
24011;DHT22;12217;50.792;4.372;2023-02-21T04:47:50;7.60;99.90
24011;DHT22;12217;50.792;4.372;2023-02-21T04:50:16;7.70;99.90
24011;DHT22;12217;50.792;4.372;2023-02-21T04:52:41;7.70;99.90
24011;DHT22;12217;50.792;4.372;2023-02-21T04:55:08;7.90;99.90
24011;DHT22;12217;50.792;4.372;2023-02-21T04:57:33;8.20;99.90
24011;DHT22;12217;50.792;4.372;2023-02-21T04:59:59;7.90;99.90
24011;DHT22;12217;50.792;4.372;2023-02-21T05:02:26;7.70;99.90
24011;DHT22;12217;50.792;4.372;2023-02-21T05:04:52;7.90;99.90
24011;DHT22;12217;50.792;4.372;2023-02-21T05:07:18;7.80;99.90
24011;DHT22;12217;50.792;4.372;2023-02-21T05:09:43;7.70;99.90
24011;DHT22;12217;50.792;4.372;2023-02-21T05:12:09;7.60;99.90
24011;DHT22;12217;50.792;4.372;2023-02-21T05:14:39;7.60;99.90
24011;DHT22;12217;50.792;4.372;2023-02-21T05:17:05;7.70;99.90
24011;DHT22;12217;50.792;4.372;2023-02-21T05:19:31;7.70;99.90
24011;DHT22;12217;50.792;4.372;2023-02-21T05:21:59;7.70;99.90
24011;DHT22;12217;50.792;4.372;2023-02-21T05:24:26;7.70;99.90
24011;DHT22;12217;50.792;4.372;2023-02-21T05:26:53;7.80;99.90
24011;DHT22;12217;50.792;4.372;2023-02-21T05:29:18;7.70;99.90
24011;DHT22;12217;50.792;4.372;2023-02-21T05:31:44;7.80;99.90
24011;DHT22;12217;50.792;4.372;2023-02-21T05:34:10;7.70;99.90
24011;DHT22;12217;50.792;4.372;2023-02-21T05:36:36;7.70;99.90
24011;DHT22;12217;50.792;4.372;2023-02-21T05:39:03;7.80;99.90
24011;DHT22;12217;50.792;4.372;2023-02-21T05:41:28;8.00;99.90
24011;DHT22;12217;50.792;4.372;2023-02-21T05:43:54;8.00;99.90
24011;DHT22;12217;50.792;4.372;2023-02-21T05:46:27;8.00;99.90
24011;DHT22;12217;50.792;4.372;2023-02-21T05:48:54;7.90;99.90
24011;DHT22;12217;50.792;4.372;2023-02-21T05:51:20;7.70;99.90
24011;DHT22;12217;50.792;4.372;2023-02-21T05:53:46;7.50;99.90
24011;DHT22;12217;50.792;4.372;2023-02-21T05:56:12;7.60;99.90
24011;DHT22;12217;50.792;4.372;2023-02-21T05:58:38;7.80;99.90
24011;DHT22;12217;50.792;4.372;2023-02-21T06:01:05;7.80;99.90
24011;DHT22;12217;50.792;4.372;2023-02-21T06:03:31;7.90;99.90
24011;DHT22;12217;50.792;4.372;2023-02-21T06:05:57;7.80;99.90
24011;DHT22;12217;50.792;4.372;2023-02-21T06:08:23;7.60;99.90
24011;DHT22;12217;50.792;4.372;2023-02-21T06:10:48;7.40;99.90
24011;DHT22;12217;50.792;4.372;2023-02-21T06:13:14;7.30;99.90
24011;DHT22;12217;50.792;4.372;2023-02-21T06:15:39;7.30;99.90
24011;DHT22;12217;50.792;4.372;2023-02-21T06:18:05;7.30;99.90
24011;DHT22;12217;50.792;4.372;2023-02-21T06:20:31;7.50;99.90
24011;DHT22;12217;50.792;4.372;2023-02-21T06:22:56;7.60;99.90
24011;DHT22;12217;50.792;4.372;2023-02-21T06:25:22;7.90;99.90
24011;DHT22;12217;50.792;4.372;2023-02-21T06:27:48;7.80;99.90
24011;DHT22;12217;50.792;4.372;2023-02-21T06:30:14;7.80;99.90
24011;DHT22;12217;50.792;4.372;2023-02-21T06:32:41;7.80;99.90
24011;DHT22;12217;50.792;4.372;2023-02-21T06:35:07;7.90;99.90
24011;DHT22;12217;50.792;4.372;2023-02-21T06:37:32;7.70;99.90
24011;DHT22;12217;50.792;4.372;2023-02-21T06:39:58;7.40;99.90
24011;DHT22;12217;50.792;4.372;2023-02-21T06:42:24;7.20;99.90
24011;DHT22;12217;50.792;4.372;2023-02-21T06:44:49;7.30;99.90
24011;DHT22;12217;50.792;4.372;2023-02-21T06:47:15;7.60;99.90
24011;DHT22;12217;50.792;4.372;2023-02-21T06:49:41;7.50;99.90
24011;DHT22;12217;50.792;4.372;2023-02-21T06:52:08;7.60;99.90
24011;DHT22;12217;50.792;4.372;2023-02-21T06:54:33;7.60;99.90
24011;DHT22;12217;50.792;4.372;2023-02-21T06:56:59;7.60;99.90
24011;DHT22;12217;50.792;4.372;2023-02-21T06:59:27;7.70;99.90
24011;DHT22;12217;50.792;4.372;2023-02-21T07:01:53;7.70;99.90
24011;DHT22;12217;50.792;4.372;2023-02-21T07:04:19;7.50;99.90
24011;DHT22;12217;50.792;4.372;2023-02-21T07:06:45;7.40;99.90
24011;DHT22;12217;50.792;4.372;2023-02-21T07:09:11;7.40;99.90
24011;DHT22;12217;50.792;4.372;2023-02-21T07:11:37;7.50;99.90
24011;DHT22;12217;50.792;4.372;2023-02-21T07:14:04;7.50;99.90
24011;DHT22;12217;50.792;4.372;2023-02-21T07:16:30;7.60;99.90
24011;DHT22;12217;50.792;4.372;2023-02-21T07:18:55;7.90;99.90
24011;DHT22;12217;50.792;4.372;2023-02-21T07:21:21;7.90;99.90
24011;DHT22;12217;50.792;4.372;2023-02-21T07:23:48;8.00;99.90
24011;DHT22;12217;50.792;4.372;2023-02-21T07:26:14;7.90;99.90
24011;DHT22;12217;50.792;4.372;2023-02-21T07:28:41;7.60;99.90
24011;DHT22;12217;50.792;4.372;2023-02-21T07:31:06;7.20;99.90
24011;DHT22;12217;50.792;4.372;2023-02-21T07:33:32;7.00;99.90
24011;DHT22;12217;50.792;4.372;2023-02-21T07:35:59;7.00;99.90
24011;DHT22;12217;50.792;4.372;2023-02-21T07:38:26;7.10;99.90
24011;DHT22;12217;50.792;4.372;2023-02-21T07:40:57;7.10;99.90
24011;DHT22;12217;50.792;4.372;2023-02-21T07:43:25;7.00;99.90
24011;DHT22;12217;50.792;4.372;2023-02-21T07:45:50;7.10;99.90
24011;DHT22;12217;50.792;4.372;2023-02-21T07:48:16;7.10;99.90
24011;DHT22;12217;50.792;4.372;2023-02-21T07:50:43;7.30;99.90
24011;DHT22;12217;50.792;4.372;2023-02-21T07:53:10;7.40;99.90
24011;DHT22;12217;50.792;4.372;2023-02-21T07:55:36;7.70;99.90
24011;DHT22;12217;50.792;4.372;2023-02-21T07:58:02;7.60;99.90
24011;DHT22;12217;50.792;4.372;2023-02-21T08:00:28;7.30;99.90
24011;DHT22;12217;50.792;4.372;2023-02-21T08:02:54;7.30;99.90
24011;DHT22;12217;50.792;4.372;2023-02-21T08:05:20;7.30;99.90
24011;DHT22;12217;50.792;4.372;2023-02-21T08:07:46;7.30;99.90
24011;DHT22;12217;50.792;4.372;2023-02-21T08:10:17;7.30;99.90
24011;DHT22;12217;50.792;4.372;2023-02-21T08:12:43;7.60;99.90
24011;DHT22;12217;50.792;4.372;2023-02-21T08:15:09;7.60;99.90
24011;DHT22;12217;50.792;4.372;2023-02-21T08:17:34;7.40;99.90
24011;DHT22;12217;50.792;4.372;2023-02-21T08:20:00;7.50;99.90
24011;DHT22;12217;50.792;4.372;2023-02-21T08:22:26;7.50;99.90
24011;DHT22;12217;50.792;4.372;2023-02-21T08:24:51;7.50;99.90
24011;DHT22;12217;50.792;4.372;2023-02-21T08:27:17;7.60;99.90
24011;DHT22;12217;50.792;4.372;2023-02-21T08:29:43;7.80;99.90
24011;DHT22;12217;50.792;4.372;2023-02-21T08:32:09;7.90;99.90
24011;DHT22;12217;50.792;4.372;2023-02-21T08:34:35;7.90;99.90
24011;DHT22;12217;50.792;4.372;2023-02-21T08:37:00;7.90;99.90
24011;DHT22;12217;50.792;4.372;2023-02-21T08:39:26;7.90;99.90
24011;DHT22;12217;50.792;4.372;2023-02-21T08:41:56;8.10;99.90
24011;DHT22;12217;50.792;4.372;2023-02-21T08:44:22;8.10;99.90
24011;DHT22;12217;50.792;4.372;2023-02-21T08:46:47;8.30;99.90
24011;DHT22;12217;50.792;4.372;2023-02-21T08:49:13;8.10;99.90
24011;DHT22;12217;50.792;4.372;2023-02-21T08:51:39;8.10;99.90
24011;DHT22;12217;50.792;4.372;2023-02-21T08:54:05;8.20;99.90
24011;DHT22;12217;50.792;4.372;2023-02-21T08:56:31;8.00;99.90
24011;DHT22;12217;50.792;4.372;2023-02-21T08:58:57;8.20;99.90
24011;DHT22;12217;50.792;4.372;2023-02-21T09:01:29;8.40;99.90
24011;DHT22;12217;50.792;4.372;2023-02-21T09:03:55;8.50;99.90
24011;DHT22;12217;50.792;4.372;2023-02-21T09:06:20;8.80;99.90
24011;DHT22;12217;50.792;4.372;2023-02-21T09:08:46;9.00;99.90
24011;DHT22;12217;50.792;4.372;2023-02-21T09:11:11;9.10;99.90
24011;DHT22;12217;50.792;4.372;2023-02-21T09:13:37;9.00;99.90
24011;DHT22;12217;50.792;4.372;2023-02-21T09:16:03;9.00;99.90
24011;DHT22;12217;50.792;4.372;2023-02-21T09:18:30;8.90;99.90
24011;DHT22;12217;50.792;4.372;2023-02-21T09:20:56;8.80;99.90
24011;DHT22;12217;50.792;4.372;2023-02-21T09:23:27;8.70;99.90
24011;DHT22;12217;50.792;4.372;2023-02-21T09:25:53;8.70;99.90
24011;DHT22;12217;50.792;4.372;2023-02-21T09:28:19;8.40;99.90
24011;DHT22;12217;50.792;4.372;2023-02-21T09:30:45;8.30;99.90
24011;DHT22;12217;50.792;4.372;2023-02-21T09:33:12;8.60;99.90
24011;DHT22;12217;50.792;4.372;2023-02-21T09:35:37;8.40;99.90
24011;DHT22;12217;50.792;4.372;2023-02-21T09:38:04;8.30;99.90
24011;DHT22;12217;50.792;4.372;2023-02-21T09:43:27;8.60;99.90
24011;DHT22;12217;50.792;4.372;2023-02-21T09:45:59;8.50;99.90
24011;DHT22;12217;50.792;4.372;2023-02-21T09:48:25;8.60;99.90
24011;DHT22;12217;50.792;4.372;2023-02-21T09:50:57;8.80;99.90
24011;DHT22;12217;50.792;4.372;2023-02-21T09:53:27;8.80;99.90
24011;DHT22;12217;50.792;4.372;2023-02-21T09:55:58;8.70;99.90
24011;DHT22;12217;50.792;4.372;2023-02-21T09:58:25;8.70;99.90
24011;DHT22;12217;50.792;4.372;2023-02-21T10:00:51;8.80;99.90
24011;DHT22;12217;50.792;4.372;2023-02-21T10:03:35;9.00;99.90
24011;DHT22;12217;50.792;4.372;2023-02-21T10:08:58;8.70;99.90
24011;DHT22;12217;50.792;4.372;2023-02-21T10:14:08;8.30;99.90
24011;DHT22;12217;50.792;4.372;2023-02-21T10:19:27;8.90;99.90
24011;DHT22;12217;50.792;4.372;2023-02-21T10:21:56;8.80;99.90
24011;DHT22;12217;50.792;4.372;2023-02-21T10:24:26;8.60;99.90
24011;DHT22;12217;50.792;4.372;2023-02-21T10:27:07;8.60;99.90
24011;DHT22;12217;50.792;4.372;2023-02-21T10:29:56;8.70;99.90
24011;DHT22;12217;50.792;4.372;2023-02-21T10:32:25;8.70;99.90
24011;DHT22;12217;50.792;4.372;2023-02-21T10:34:52;8.70;99.90
24011;DHT22;12217;50.792;4.372;2023-02-21T10:37:38;8.90;99.90
24011;DHT22;12217;50.792;4.372;2023-02-21T10:46:04;9.30;99.90
24011;DHT22;12217;50.792;4.372;2023-02-21T10:48:37;9.00;99.90
24011;DHT22;12217;50.792;4.372;2023-02-21T11:04:04;8.80;99.90
24011;DHT22;12217;50.792;4.372;2023-02-21T11:08:56;9.30;99.90
24011;DHT22;12217;50.792;4.372;2023-02-21T11:11:34;9.30;99.90
24011;DHT22;12217;50.792;4.372;2023-02-21T11:14:27;9.30;99.90
24011;DHT22;12217;50.792;4.372;2023-02-21T11:17:27;9.40;99.90
24011;DHT22;12217;50.792;4.372;2023-02-21T11:22:39;9.70;99.90
24011;DHT22;12217;50.792;4.372;2023-02-21T11:25:30;9.70;99.90
24011;DHT22;12217;50.792;4.372;2023-02-21T11:28:16;9.50;99.90
24011;DHT22;12217;50.792;4.372;2023-02-21T11:33:19;9.20;99.90
24011;DHT22;12217;50.792;4.372;2023-02-21T11:35:50;9.20;99.90
24011;DHT22;12217;50.792;4.372;2023-02-21T11:41:45;9.40;99.90
24011;DHT22;12217;50.792;4.372;2023-02-21T11:52:18;8.70;99.90
24011;DHT22;12217;50.792;4.372;2023-02-21T11:54:45;8.60;99.90
24011;DHT22;12217;50.792;4.372;2023-02-21T11:57:41;8.60;99.90
24011;DHT22;12217;50.792;4.372;2023-02-21T12:00:40;8.60;99.90
24011;DHT22;12217;50.792;4.372;2023-02-21T12:03:21;8.30;99.90
24011;DHT22;12217;50.792;4.372;2023-02-21T12:14:28;8.50;99.90
24011;DHT22;12217;50.792;4.372;2023-02-21T12:19:39;8.50;99.90
24011;DHT22;12217;50.792;4.372;2023-02-21T12:22:22;8.60;99.90
24011;DHT22;12217;50.792;4.372;2023-02-21T12:38:59;8.90;99.90
24011;DHT22;12217;50.792;4.372;2023-02-21T12:41:59;9.10;99.90
24011;DHT22;12217;50.792;4.372;2023-02-21T12:47:22;9.40;99.90
24011;DHT22;12217;50.792;4.372;2023-02-21T12:50:04;9.40;99.90
24011;DHT22;12217;50.792;4.372;2023-02-21T12:52:40;9.30;99.90
24011;DHT22;12217;50.792;4.372;2023-02-21T12:55:20;9.30;99.90
24011;DHT22;12217;50.792;4.372;2023-02-21T12:57:57;9.40;99.90
24011;DHT22;12217;50.792;4.372;2023-02-21T13:00:40;9.40;99.90
24011;DHT22;12217;50.792;4.372;2023-02-21T13:06:02;9.90;99.90
24011;DHT22;12217;50.792;4.372;2023-02-21T13:08:33;9.80;99.90
24011;DHT22;12217;50.792;4.372;2023-02-21T13:11:11;9.90;99.90
24011;DHT22;12217;50.792;4.372;2023-02-21T13:13:38;10.00;99.90
24011;DHT22;12217;50.792;4.372;2023-02-21T13:16:07;10.00;99.90
24011;DHT22;12217;50.792;4.372;2023-02-21T13:18:52;10.20;99.90
24011;DHT22;12217;50.792;4.372;2023-02-21T13:22:09;10.20;99.90
24011;DHT22;12217;50.792;4.372;2023-02-21T13:25:04;10.10;99.90
24011;DHT22;12217;50.792;4.372;2023-02-21T13:27:56;10.40;99.90
24011;DHT22;12217;50.792;4.372;2023-02-21T13:32:59;9.90;99.90
24011;DHT22;12217;50.792;4.372;2023-02-21T13:35:43;9.90;99.90
24011;DHT22;12217;50.792;4.372;2023-02-21T13:38:10;9.70;99.90
24011;DHT22;12217;50.792;4.372;2023-02-21T13:40:41;9.60;99.90
24011;DHT22;12217;50.792;4.372;2023-02-21T13:43:33;9.70;99.90
24011;DHT22;12217;50.792;4.372;2023-02-21T14:08:26;9.30;99.90
24011;DHT22;12217;50.792;4.372;2023-02-21T14:13:41;9.10;99.90
24011;DHT22;12217;50.792;4.372;2023-02-21T14:19:02;9.10;99.90
24011;DHT22;12217;50.792;4.372;2023-02-21T14:21:46;8.90;99.90
24011;DHT22;12217;50.792;4.372;2023-02-21T14:24:18;8.90;99.90
24011;DHT22;12217;50.792;4.372;2023-02-21T14:26:56;9.00;99.90
24011;DHT22;12217;50.792;4.372;2023-02-21T14:32:16;9.40;99.90
24011;DHT22;12217;50.792;4.372;2023-02-21T14:45:34;10.10;99.90
24011;DHT22;12217;50.792;4.372;2023-02-21T15:04:38;10.80;99.90
24011;DHT22;12217;50.792;4.372;2023-02-21T15:07:56;10.80;99.90
24011;DHT22;12217;50.792;4.372;2023-02-21T15:10:16;10.30;99.90
24011;DHT22;12217;50.792;4.372;2023-02-21T15:12:48;10.10;99.90
24011;DHT22;12217;50.792;4.372;2023-02-21T15:17:56;10.40;99.90
24011;DHT22;12217;50.792;4.372;2023-02-21T15:20:22;10.50;99.90
24011;DHT22;12217;50.792;4.372;2023-02-21T15:25:36;10.30;99.90
24011;DHT22;12217;50.792;4.372;2023-02-21T15:28:05;10.40;99.90
24011;DHT22;12217;50.792;4.372;2023-02-21T15:30:37;10.40;99.90
24011;DHT22;12217;50.792;4.372;2023-02-21T15:33:18;10.60;99.90
24011;DHT22;12217;50.792;4.372;2023-02-21T15:35:50;10.60;99.90
24011;DHT22;12217;50.792;4.372;2023-02-21T15:40:58;10.50;99.90
24011;DHT22;12217;50.792;4.372;2023-02-21T15:43:55;10.60;99.90
24011;DHT22;12217;50.792;4.372;2023-02-21T15:46:25;10.60;99.90
24011;DHT22;12217;50.792;4.372;2023-02-21T15:48:55;10.70;99.90
24011;DHT22;12217;50.792;4.372;2023-02-21T15:51:24;10.60;99.90
24011;DHT22;12217;50.792;4.372;2023-02-21T15:54:20;10.80;99.90
24011;DHT22;12217;50.792;4.372;2023-02-21T15:56:46;10.50;99.90
24011;DHT22;12217;50.792;4.372;2023-02-21T15:59:19;10.60;99.90
24011;DHT22;12217;50.792;4.372;2023-02-21T16:04:40;10.60;99.90
24011;DHT22;12217;50.792;4.372;2023-02-21T16:10:05;10.70;99.90
24011;DHT22;12217;50.792;4.372;2023-02-21T16:12:42;10.30;99.90
24011;DHT22;12217;50.792;4.372;2023-02-21T16:15:39;10.20;99.90
24011;DHT22;12217;50.792;4.372;2023-02-21T16:18:07;10.40;99.90
24011;DHT22;12217;50.792;4.372;2023-02-21T16:28:24;10.60;99.90
24011;DHT22;12217;50.792;4.372;2023-02-21T16:30:50;10.50;99.90
24011;DHT22;12217;50.792;4.372;2023-02-21T16:33:16;10.60;99.90
24011;DHT22;12217;50.792;4.372;2023-02-21T16:35:41;10.70;99.90
24011;DHT22;12217;50.792;4.372;2023-02-21T16:38:14;10.70;99.90
24011;DHT22;12217;50.792;4.372;2023-02-21T16:40:40;10.70;99.90
24011;DHT22;12217;50.792;4.372;2023-02-21T16:43:06;10.30;99.90
24011;DHT22;12217;50.792;4.372;2023-02-21T16:45:32;10.30;99.90
24011;DHT22;12217;50.792;4.372;2023-02-21T16:48:03;10.30;99.90
24011;DHT22;12217;50.792;4.372;2023-02-21T16:50:32;10.40;99.90
24011;DHT22;12217;50.792;4.372;2023-02-21T16:52:59;10.60;99.90
24011;DHT22;12217;50.792;4.372;2023-02-21T16:55:26;10.60;99.90
24011;DHT22;12217;50.792;4.372;2023-02-21T16:57:54;10.70;99.90
24011;DHT22;12217;50.792;4.372;2023-02-21T17:00:20;10.70;99.90
24011;DHT22;12217;50.792;4.372;2023-02-21T17:02:50;10.70;99.90
24011;DHT22;12217;50.792;4.372;2023-02-21T17:05:18;10.60;99.90
24011;DHT22;12217;50.792;4.372;2023-02-21T17:07:49;10.70;99.90
24011;DHT22;12217;50.792;4.372;2023-02-21T17:10:16;10.70;99.90
24011;DHT22;12217;50.792;4.372;2023-02-21T17:12:42;10.70;99.90
24011;DHT22;12217;50.792;4.372;2023-02-21T17:15:07;10.60;99.90
24011;DHT22;12217;50.792;4.372;2023-02-21T17:17:35;10.60;99.90
24011;DHT22;12217;50.792;4.372;2023-02-21T17:20:01;10.50;99.90
24011;DHT22;12217;50.792;4.372;2023-02-21T17:22:26;10.40;99.90
24011;DHT22;12217;50.792;4.372;2023-02-21T17:24:52;10.50;99.90
24011;DHT22;12217;50.792;4.372;2023-02-21T17:27:18;10.40;99.90
24011;DHT22;12217;50.792;4.372;2023-02-21T17:29:46;10.30;99.90
24011;DHT22;12217;50.792;4.372;2023-02-21T17:32:12;10.30;99.90
24011;DHT22;12217;50.792;4.372;2023-02-21T17:34:37;10.30;99.90
24011;DHT22;12217;50.792;4.372;2023-02-21T17:37:03;10.30;99.90
24011;DHT22;12217;50.792;4.372;2023-02-21T17:39:29;10.30;99.90
24011;DHT22;12217;50.792;4.372;2023-02-21T17:41:55;10.30;99.90
24011;DHT22;12217;50.792;4.372;2023-02-21T17:44:22;10.20;99.90
24011;DHT22;12217;50.792;4.372;2023-02-21T17:46:54;10.20;99.90
24011;DHT22;12217;50.792;4.372;2023-02-21T17:49:22;10.10;99.90
24011;DHT22;12217;50.792;4.372;2023-02-21T17:51:49;10.10;99.90
24011;DHT22;12217;50.792;4.372;2023-02-21T17:54:16;10.10;99.90
24011;DHT22;12217;50.792;4.372;2023-02-21T17:56:42;10.10;99.90
24011;DHT22;12217;50.792;4.372;2023-02-21T17:59:08;10.10;99.90
24011;DHT22;12217;50.792;4.372;2023-02-21T18:01:34;10.10;99.90
24011;DHT22;12217;50.792;4.372;2023-02-21T18:03:59;10.00;99.90
24011;DHT22;12217;50.792;4.372;2023-02-21T18:06:28;10.00;99.90
24011;DHT22;12217;50.792;4.372;2023-02-21T18:08:55;10.00;99.90
24011;DHT22;12217;50.792;4.372;2023-02-21T18:11:22;9.90;99.90
24011;DHT22;12217;50.792;4.372;2023-02-21T18:13:49;9.80;99.90
24011;DHT22;12217;50.792;4.372;2023-02-21T18:16:15;9.70;99.90
24011;DHT22;12217;50.792;4.372;2023-02-21T18:18:40;9.80;99.90
24011;DHT22;12217;50.792;4.372;2023-02-21T18:21:07;9.70;99.90
24011;DHT22;12217;50.792;4.372;2023-02-21T18:23:34;9.70;99.90
24011;DHT22;12217;50.792;4.372;2023-02-21T18:26:01;9.60;99.90
24011;DHT22;12217;50.792;4.372;2023-02-21T18:28:27;9.60;99.90
24011;DHT22;12217;50.792;4.372;2023-02-21T18:30:54;9.60;99.90
24011;DHT22;12217;50.792;4.372;2023-02-21T18:33:21;9.50;99.90
24011;DHT22;12217;50.792;4.372;2023-02-21T18:35:48;9.50;99.90
24011;DHT22;12217;50.792;4.372;2023-02-21T18:38:14;9.50;99.90
24011;DHT22;12217;50.792;4.372;2023-02-21T18:40:42;9.50;99.90
24011;DHT22;12217;50.792;4.372;2023-02-21T18:43:21;9.60;99.90
24011;DHT22;12217;50.792;4.372;2023-02-21T18:45:49;9.60;99.90
24011;DHT22;12217;50.792;4.372;2023-02-21T18:48:15;9.50;99.90
24011;DHT22;12217;50.792;4.372;2023-02-21T18:50:42;9.50;99.90
24011;DHT22;12217;50.792;4.372;2023-02-21T18:53:08;9.50;99.90
24011;DHT22;12217;50.792;4.372;2023-02-21T18:55:34;9.40;99.90
24011;DHT22;12217;50.792;4.372;2023-02-21T18:58:00;9.40;99.90
24011;DHT22;12217;50.792;4.372;2023-02-21T19:00:26;9.40;99.90
24011;DHT22;12217;50.792;4.372;2023-02-21T19:02:54;9.30;99.90
24011;DHT22;12217;50.792;4.372;2023-02-21T19:05:22;9.30;99.90
24011;DHT22;12217;50.792;4.372;2023-02-21T19:07:48;9.30;99.90
24011;DHT22;12217;50.792;4.372;2023-02-21T19:10:18;9.30;99.90
24011;DHT22;12217;50.792;4.372;2023-02-21T19:12:45;9.30;99.90
24011;DHT22;12217;50.792;4.372;2023-02-21T19:15:11;9.30;99.90
24011;DHT22;12217;50.792;4.372;2023-02-21T19:17:36;9.30;99.90
24011;DHT22;12217;50.792;4.372;2023-02-21T19:20:03;9.20;99.90
24011;DHT22;12217;50.792;4.372;2023-02-21T19:22:35;9.20;99.90